sensor_id;sensor_type;location;lat;lon;timestamp;temperature;humidity
69546;SHT31;56766;52.260;20.746;2023-03-23T00:01:20;7.67;85.54
69546;SHT31;56766;52.260;20.746;2023-03-23T00:03:50;7.68;85.46
69546;SHT31;56766;52.260;20.746;2023-03-23T00:06:19;7.67;85.39
69546;SHT31;56766;52.260;20.746;2023-03-23T00:08:49;7.66;85.33
69546;SHT31;56766;52.260;20.746;2023-03-23T00:11:21;7.66;85.31
69546;SHT31;56766;52.260;20.746;2023-03-23T00:13:50;7.67;85.30
69546;SHT31;56766;52.260;20.746;2023-03-23T00:16:23;7.65;85.29
69546;SHT31;56766;52.260;20.746;2023-03-23T00:19:01;7.65;85.31
69546;SHT31;56766;52.260;20.746;2023-03-23T00:21:32;7.64;85.40
69546;SHT31;56766;52.260;20.746;2023-03-23T00:24:15;7.65;85.42
69546;SHT31;56766;52.260;20.746;2023-03-23T00:26:45;7.67;85.40
69546;SHT31;56766;52.260;20.746;2023-03-23T00:29:16;7.68;85.36
69546;SHT31;56766;52.260;20.746;2023-03-23T00:31:45;7.71;85.40
69546;SHT31;56766;52.260;20.746;2023-03-23T00:34:18;7.73;85.40
69546;SHT31;56766;52.260;20.746;2023-03-23T00:36:49;7.74;85.40
69546;SHT31;56766;52.260;20.746;2023-03-23T00:39:17;7.73;85.40
69546;SHT31;56766;52.260;20.746;2023-03-23T00:41:45;7.71;85.40
69546;SHT31;56766;52.260;20.746;2023-03-23T00:44:13;7.70;85.40
69546;SHT31;56766;52.260;20.746;2023-03-23T00:46:44;7.70;85.43
69546;SHT31;56766;52.260;20.746;2023-03-23T00:49:13;7.70;85.42
69546;SHT31;56766;52.260;20.746;2023-03-23T00:51:42;7.73;85.40
69546;SHT31;56766;52.260;20.746;2023-03-23T00:54:11;7.75;85.40
69546;SHT31;56766;52.260;20.746;2023-03-23T00:56:38;7.78;85.32
69546;SHT31;56766;52.260;20.746;2023-03-23T00:59:05;7.83;85.30
69546;SHT31;56766;52.260;20.746;2023-03-23T01:01:33;7.86;85.22
69546;SHT31;56766;52.260;20.746;2023-03-23T01:04:02;7.89;85.18
69546;SHT31;56766;52.260;20.746;2023-03-23T01:06:33;7.93;85.12
69546;SHT31;56766;52.260;20.746;2023-03-23T01:09:07;7.94;85.10
69546;SHT31;56766;52.260;20.746;2023-03-23T01:11:35;7.95;85.03
69546;SHT31;56766;52.260;20.746;2023-03-23T01:14:03;7.96;84.94
69546;SHT31;56766;52.260;20.746;2023-03-23T01:16:30;7.96;84.91
69546;SHT31;56766;52.260;20.746;2023-03-23T01:18:57;7.95;84.85
69546;SHT31;56766;52.260;20.746;2023-03-23T01:21:23;7.95;84.79
69546;SHT31;56766;52.260;20.746;2023-03-23T01:23:51;7.94;84.68
69546;SHT31;56766;52.260;20.746;2023-03-23T01:26:22;7.94;84.63
69546;SHT31;56766;52.260;20.746;2023-03-23T01:28:51;7.94;84.64
69546;SHT31;56766;52.260;20.746;2023-03-23T01:31:21;7.93;84.60
69546;SHT31;56766;52.260;20.746;2023-03-23T01:33:51;7.93;84.60
69546;SHT31;56766;52.260;20.746;2023-03-23T01:36:25;7.93;84.59
69546;SHT31;56766;52.260;20.746;2023-03-23T01:38:55;7.94;84.62
69546;SHT31;56766;52.260;20.746;2023-03-23T01:41:24;7.94;84.66
69546;SHT31;56766;52.260;20.746;2023-03-23T01:44:00;7.93;84.84
69546;SHT31;56766;52.260;20.746;2023-03-23T01:46:35;7.92;84.83
69546;SHT31;56766;52.260;20.746;2023-03-23T01:49:10;7.91;84.84
69546;SHT31;56766;52.260;20.746;2023-03-23T01:51:46;7.91;84.93
69546;SHT31;56766;52.260;20.746;2023-03-23T01:54:21;7.91;85.00
69546;SHT31;56766;52.260;20.746;2023-03-23T01:56:59;7.90;84.95
69546;SHT31;56766;52.260;20.746;2023-03-23T01:59:32;7.91;84.87
69546;SHT31;56766;52.260;20.746;2023-03-23T02:02:01;7.93;84.80
69546;SHT31;56766;52.260;20.746;2023-03-23T02:04:30;7.94;84.91
69546;SHT31;56766;52.260;20.746;2023-03-23T02:06:59;7.95;84.85
69546;SHT31;56766;52.260;20.746;2023-03-23T02:09:27;7.95;84.89
69546;SHT31;56766;52.260;20.746;2023-03-23T02:11:54;7.94;84.98
69546;SHT31;56766;52.260;20.746;2023-03-23T02:14:24;7.94;85.08
69546;SHT31;56766;52.260;20.746;2023-03-23T02:17:02;7.95;85.06
69546;SHT31;56766;52.260;20.746;2023-03-23T02:29:22;7.99;85.20
69546;SHT31;56766;52.260;20.746;2023-03-23T02:32:16;8.00;85.20
69546;SHT31;56766;52.260;20.746;2023-03-23T02:35:19;8.02;85.27
69546;SHT31;56766;52.260;20.746;2023-03-23T02:37:58;8.02;85.30
69546;SHT31;56766;52.260;20.746;2023-03-23T02:40:49;8.04;85.30
69546;SHT31;56766;52.260;20.746;2023-03-23T02:43:21;8.06;85.33
69546;SHT31;56766;52.260;20.746;2023-03-23T02:45:53;8.08;85.30
69546;SHT31;56766;52.260;20.746;2023-03-23T02:48:27;8.10;85.30
69546;SHT31;56766;52.260;20.746;2023-03-23T02:50:58;8.10;85.30
69546;SHT31;56766;52.260;20.746;2023-03-23T02:53:29;8.10;85.32
69546;SHT31;56766;52.260;20.746;2023-03-23T02:55:59;8.11;85.40
69546;SHT31;56766;52.260;20.746;2023-03-23T02:58:29;8.11;85.41
69546;SHT31;56766;52.260;20.746;2023-03-23T03:00:56;8.11;85.50
69546;SHT31;56766;52.260;20.746;2023-03-23T03:03:29;8.10;85.57
69546;SHT31;56766;52.260;20.746;2023-03-23T03:08:52;8.06;85.49
69546;SHT31;56766;52.260;20.746;2023-03-23T03:11:25;8.03;85.47
69546;SHT31;56766;52.260;20.746;2023-03-23T03:14:11;7.99;85.50
69546;SHT31;56766;52.260;20.746;2023-03-23T03:16:57;7.93;85.44
69546;SHT31;56766;52.260;20.746;2023-03-23T03:19:34;7.89;85.54
69546;SHT31;56766;52.260;20.746;2023-03-23T03:22:06;7.85;85.67
69546;SHT31;56766;52.260;20.746;2023-03-23T03:24:36;7.81;85.64
69546;SHT31;56766;52.260;20.746;2023-03-23T03:27:11;7.76;85.71
69546;SHT31;56766;52.260;20.746;2023-03-23T03:29:45;7.71;85.77
69546;SHT31;56766;52.260;20.746;2023-03-23T03:32:24;7.66;85.78
69546;SHT31;56766;52.260;20.746;2023-03-23T03:35:02;7.61;85.71
69546;SHT31;56766;52.260;20.746;2023-03-23T03:37:38;7.58;85.67
69546;SHT31;56766;52.260;20.746;2023-03-23T03:40:09;7.52;85.68
69546;SHT31;56766;52.260;20.746;2023-03-23T03:42:40;7.49;85.79
69546;SHT31;56766;52.260;20.746;2023-03-23T03:45:12;7.46;85.89
69546;SHT31;56766;52.260;20.746;2023-03-23T03:47:41;7.45;85.93
69546;SHT31;56766;52.260;20.746;2023-03-23T03:50:09;7.45;85.98
69546;SHT31;56766;52.260;20.746;2023-03-23T03:52:36;7.43;85.90
69546;SHT31;56766;52.260;20.746;2023-03-23T03:55:05;7.41;85.83
69546;SHT31;56766;52.260;20.746;2023-03-23T03:57:34;7.38;85.69
69546;SHT31;56766;52.260;20.746;2023-03-23T04:00:01;7.35;85.64
69546;SHT31;56766;52.260;20.746;2023-03-23T04:02:38;7.34;85.70
69546;SHT31;56766;52.260;20.746;2023-03-23T04:05:05;7.33;85.79
69546;SHT31;56766;52.260;20.746;2023-03-23T04:07:32;7.34;85.80
69546;SHT31;56766;52.260;20.746;2023-03-23T04:09:59;7.32;85.80
69546;SHT31;56766;52.260;20.746;2023-03-23T04:12:26;7.32;85.84
69546;SHT31;56766;52.260;20.746;2023-03-23T04:14:52;7.30;85.89
69546;SHT31;56766;52.260;20.746;2023-03-23T04:17:19;7.28;85.90
69546;SHT31;56766;52.260;20.746;2023-03-23T04:19:46;7.29;85.88
69546;SHT31;56766;52.260;20.746;2023-03-23T04:22:13;7.27;85.90
69546;SHT31;56766;52.260;20.746;2023-03-23T04:24:42;7.26;85.90
69546;SHT31;56766;52.260;20.746;2023-03-23T04:27:09;7.26;85.86
69546;SHT31;56766;52.260;20.746;2023-03-23T04:29:35;7.24;85.84
69546;SHT31;56766;52.260;20.746;2023-03-23T04:32:02;7.20;85.80
69546;SHT31;56766;52.260;20.746;2023-03-23T04:34:28;7.19;85.87
69546;SHT31;56766;52.260;20.746;2023-03-23T04:36:59;7.18;85.92
69546;SHT31;56766;52.260;20.746;2023-03-23T04:39:25;7.19;86.00
69546;SHT31;56766;52.260;20.746;2023-03-23T04:41:55;7.19;86.00
69546;SHT31;56766;52.260;20.746;2023-03-23T04:44:21;7.20;86.00
69546;SHT31;56766;52.260;20.746;2023-03-23T04:46:48;7.21;86.00
69546;SHT31;56766;52.260;20.746;2023-03-23T04:49:16;7.23;86.03
69546;SHT31;56766;52.260;20.746;2023-03-23T04:51:47;7.26;86.09
69546;SHT31;56766;52.260;20.746;2023-03-23T04:54:16;7.31;86.05
69546;SHT31;56766;52.260;20.746;2023-03-23T04:56:43;7.36;86.10
69546;SHT31;56766;52.260;20.746;2023-03-23T04:59:10;7.42;86.22
69546;SHT31;56766;52.260;20.746;2023-03-23T05:01:37;7.47;86.29
69546;SHT31;56766;52.260;20.746;2023-03-23T05:04:04;7.55;86.31
69546;SHT31;56766;52.260;20.746;2023-03-23T05:06:31;7.61;86.40
69546;SHT31;56766;52.260;20.746;2023-03-23T05:08:57;7.70;86.39
69546;SHT31;56766;52.260;20.746;2023-03-23T05:11:24;7.78;86.39
69546;SHT31;56766;52.260;20.746;2023-03-23T05:13:51;7.85;86.40
69546;SHT31;56766;52.260;20.746;2023-03-23T05:16:17;7.92;86.32
69546;SHT31;56766;52.260;20.746;2023-03-23T05:18:44;8.00;86.26
69546;SHT31;56766;52.260;20.746;2023-03-23T05:21:11;8.06;86.24
69546;SHT31;56766;52.260;20.746;2023-03-23T05:23:38;8.13;86.20
69546;SHT31;56766;52.260;20.746;2023-03-23T05:26:06;8.21;86.17
69546;SHT31;56766;52.260;20.746;2023-03-23T05:28:33;8.28;86.12
69546;SHT31;56766;52.260;20.746;2023-03-23T05:30:59;8.37;86.04
69546;SHT31;56766;52.260;20.746;2023-03-23T05:33:26;8.46;85.99
69546;SHT31;56766;52.260;20.746;2023-03-23T05:35:53;8.55;85.90
69546;SHT31;56766;52.260;20.746;2023-03-23T05:38:20;8.65;85.87
69546;SHT31;56766;52.260;20.746;2023-03-23T05:40:48;8.74;85.77
69546;SHT31;56766;52.260;20.746;2023-03-23T05:43:15;8.84;85.70
69546;SHT31;56766;52.260;20.746;2023-03-23T05:45:41;8.96;85.59
69546;SHT31;56766;52.260;20.746;2023-03-23T05:48:08;9.05;85.49
69546;SHT31;56766;52.260;20.746;2023-03-23T05:50:35;9.17;85.37
69546;SHT31;56766;52.260;20.746;2023-03-23T05:53:02;9.28;85.30
69546;SHT31;56766;52.260;20.746;2023-03-23T05:55:30;9.42;85.21
69546;SHT31;56766;52.260;20.746;2023-03-23T05:57:58;9.55;85.03
69546;SHT31;56766;52.260;20.746;2023-03-23T06:00:25;9.66;84.89
69546;SHT31;56766;52.260;20.746;2023-03-23T06:02:56;9.78;84.76
69546;SHT31;56766;52.260;20.746;2023-03-23T06:05:23;9.88;84.65
69546;SHT31;56766;52.260;20.746;2023-03-23T06:07:52;9.98;84.47
69546;SHT31;56766;52.260;20.746;2023-03-23T06:10:20;10.07;84.32
69546;SHT31;56766;52.260;20.746;2023-03-23T06:12:49;10.18;84.15
69546;SHT31;56766;52.260;20.746;2023-03-23T06:15:18;10.28;84.02
69546;SHT31;56766;52.260;20.746;2023-03-23T06:17:45;10.40;83.88
69546;SHT31;56766;52.260;20.746;2023-03-23T06:20:12;10.50;83.76
69546;SHT31;56766;52.260;20.746;2023-03-23T06:22:39;10.61;83.66
69546;SHT31;56766;52.260;20.746;2023-03-23T06:25:08;10.71;83.55
69546;SHT31;56766;52.260;20.746;2023-03-23T06:27:37;10.80;83.38
69546;SHT31;56766;52.260;20.746;2023-03-23T06:30:04;10.86;83.32
69546;SHT31;56766;52.260;20.746;2023-03-23T06:32:33;10.93;83.27
69546;SHT31;56766;52.260;20.746;2023-03-23T06:35:00;10.99;83.19
69546;SHT31;56766;52.260;20.746;2023-03-23T06:37:27;11.03;83.19
69546;SHT31;56766;52.260;20.746;2023-03-23T06:39:54;11.05;83.09
69546;SHT31;56766;52.260;20.746;2023-03-23T06:42:22;11.09;82.95
69546;SHT31;56766;52.260;20.746;2023-03-23T06:44:52;11.15;82.75
69546;SHT31;56766;52.260;20.746;2023-03-23T06:47:19;11.22;82.67
69546;SHT31;56766;52.260;20.746;2023-03-23T06:49:46;11.32;82.63
69546;SHT31;56766;52.260;20.746;2023-03-23T06:52:13;11.47;82.60
69546;SHT31;56766;52.260;20.746;2023-03-23T06:54:40;11.67;82.43
69546;SHT31;56766;52.260;20.746;2023-03-23T06:57:07;11.88;82.21
69546;SHT31;56766;52.260;20.746;2023-03-23T06:59:34;12.10;82.12
69546;SHT31;56766;52.260;20.746;2023-03-23T07:02:01;12.32;81.91
69546;SHT31;56766;52.260;20.746;2023-03-23T07:04:28;12.50;81.61
69546;SHT31;56766;52.260;20.746;2023-03-23T07:06:54;12.64;81.23
69546;SHT31;56766;52.260;20.746;2023-03-23T07:09:22;12.75;80.94
69546;SHT31;56766;52.260;20.746;2023-03-23T07:11:49;12.81;80.76
69546;SHT31;56766;52.260;20.746;2023-03-23T07:14:17;12.88;80.34
69546;SHT31;56766;52.260;20.746;2023-03-23T07:16:44;12.93;80.15
69546;SHT31;56766;52.260;20.746;2023-03-23T07:19:11;13.01;80.02
69546;SHT31;56766;52.260;20.746;2023-03-23T07:21:37;13.20;79.73
69546;SHT31;56766;52.260;20.746;2023-03-23T07:24:04;13.49;79.84
69546;SHT31;56766;52.260;20.746;2023-03-23T07:26:31;13.67;79.22
69546;SHT31;56766;52.260;20.746;2023-03-23T07:28:58;13.75;78.67
69546;SHT31;56766;52.260;20.746;2023-03-23T07:31:24;13.85;78.58
69546;SHT31;56766;52.260;20.746;2023-03-23T07:33:51;13.90;78.20
69546;SHT31;56766;52.260;20.746;2023-03-23T07:36:18;13.88;77.78
69546;SHT31;56766;52.260;20.746;2023-03-23T07:38:44;13.82;77.35
69546;SHT31;56766;52.260;20.746;2023-03-23T07:41:11;13.82;77.04
69546;SHT31;56766;52.260;20.746;2023-03-23T07:43:37;13.97;76.93
69546;SHT31;56766;52.260;20.746;2023-03-23T07:46:04;14.24;76.68
69546;SHT31;56766;52.260;20.746;2023-03-23T07:48:31;14.59;76.51
69546;SHT31;56766;52.260;20.746;2023-03-23T07:50:59;14.95;76.09
69546;SHT31;56766;52.260;20.746;2023-03-23T07:53:25;15.12;75.39
69546;SHT31;56766;52.260;20.746;2023-03-23T07:55:52;15.25;75.34
69546;SHT31;56766;52.260;20.746;2023-03-23T07:58:19;15.38;74.93
69546;SHT31;56766;52.260;20.746;2023-03-23T08:00:46;15.48;74.09
69546;SHT31;56766;52.260;20.746;2023-03-23T08:03:15;15.55;73.70
69546;SHT31;56766;52.260;20.746;2023-03-23T08:05:42;15.59;73.44
69546;SHT31;56766;52.260;20.746;2023-03-23T08:08:09;15.59;73.16
69546;SHT31;56766;52.260;20.746;2023-03-23T08:10:36;15.65;73.11
69546;SHT31;56766;52.260;20.746;2023-03-23T08:13:03;15.72;72.82
69546;SHT31;56766;52.260;20.746;2023-03-23T08:15:32;15.78;72.51
69546;SHT31;56766;52.260;20.746;2023-03-23T08:18:04;15.81;72.45
69546;SHT31;56766;52.260;20.746;2023-03-23T08:20:31;15.87;71.93
69546;SHT31;56766;52.260;20.746;2023-03-23T08:22:59;15.87;71.66
69546;SHT31;56766;52.260;20.746;2023-03-23T08:25:26;15.89;71.70
69546;SHT31;56766;52.260;20.746;2023-03-23T08:27:53;15.92;70.98
69546;SHT31;56766;52.260;20.746;2023-03-23T08:30:21;15.91;70.89
69546;SHT31;56766;52.260;20.746;2023-03-23T08:32:49;16.00;71.16
69546;SHT31;56766;52.260;20.746;2023-03-23T08:35:18;16.14;70.90
69546;SHT31;56766;52.260;20.746;2023-03-23T08:37:45;16.26;70.42
69546;SHT31;56766;52.260;20.746;2023-03-23T08:40:14;16.34;70.20
69546;SHT31;56766;52.260;20.746;2023-03-23T08:42:42;16.43;70.20
69546;SHT31;56766;52.260;20.746;2023-03-23T08:45:12;16.52;69.90
69546;SHT31;56766;52.260;20.746;2023-03-23T08:47:43;16.53;68.51
69546;SHT31;56766;52.260;20.746;2023-03-23T08:50:13;16.53;68.67
69546;SHT31;56766;52.260;20.746;2023-03-23T08:52:42;16.54;68.62
69546;SHT31;56766;52.260;20.746;2023-03-23T08:55:10;16.57;68.66
69546;SHT31;56766;52.260;20.746;2023-03-23T08:57:37;16.52;68.55
69546;SHT31;56766;52.260;20.746;2023-03-23T09:00:07;16.44;68.03
69546;SHT31;56766;52.260;20.746;2023-03-23T09:02:46;16.39;68.23
69546;SHT31;56766;52.260;20.746;2023-03-23T09:05:16;16.36;68.31
69546;SHT31;56766;52.260;20.746;2023-03-23T09:07:49;16.34;68.46
69546;SHT31;56766;52.260;20.746;2023-03-23T09:10:17;16.38;68.87
69546;SHT31;56766;52.260;20.746;2023-03-23T09:12:46;16.43;68.82
69546;SHT31;56766;52.260;20.746;2023-03-23T09:15:15;16.51;68.87
69546;SHT31;56766;52.260;20.746;2023-03-23T09:17:46;16.56;68.62
69546;SHT31;56766;52.260;20.746;2023-03-23T09:20:18;16.61;68.35
69546;SHT31;56766;52.260;20.746;2023-03-23T09:22:50;16.62;67.74
69546;SHT31;56766;52.260;20.746;2023-03-23T09:25:20;16.63;67.53
69546;SHT31;56766;52.260;20.746;2023-03-23T09:27:52;16.68;67.62
69546;SHT31;56766;52.260;20.746;2023-03-23T09:30:28;16.78;67.95
69546;SHT31;56766;52.260;20.746;2023-03-23T09:32:59;16.89;67.55
69546;SHT31;56766;52.260;20.746;2023-03-23T09:35:28;17.00;67.09
69546;SHT31;56766;52.260;20.746;2023-03-23T09:37:56;17.17;67.19
69546;SHT31;56766;52.260;20.746;2023-03-23T09:40:28;17.39;66.52
69546;SHT31;56766;52.260;20.746;2023-03-23T09:52:07;18.27;64.64
69546;SHT31;56766;52.260;20.746;2023-03-23T09:54:50;18.46;63.92
69546;SHT31;56766;52.260;20.746;2023-03-23T09:57:28;18.68;63.52
69546;SHT31;56766;52.260;20.746;2023-03-23T10:00:15;18.85;62.98
69546;SHT31;56766;52.260;20.746;2023-03-23T10:03:06;18.96;62.28
69546;SHT31;56766;52.260;20.746;2023-03-23T10:05:44;19.07;61.62
69546;SHT31;56766;52.260;20.746;2023-03-23T10:08:19;19.23;62.01
69546;SHT31;56766;52.260;20.746;2023-03-23T10:14:43;19.53;61.20
69546;SHT31;56766;52.260;20.746;2023-03-23T10:23:13;20.16;58.26
69546;SHT31;56766;52.260;20.746;2023-03-23T10:26:01;20.39;57.78
69546;SHT31;56766;52.260;20.746;2023-03-23T10:28:41;20.49;57.14
69546;SHT31;56766;52.260;20.746;2023-03-23T10:31:27;20.49;57.06
69546;SHT31;56766;52.260;20.746;2023-03-23T10:34:04;20.51;55.92
69546;SHT31;56766;52.260;20.746;2023-03-23T10:37:05;20.50;55.09
69546;SHT31;56766;52.260;20.746;2023-03-23T10:39:51;20.58;55.71
69546;SHT31;56766;52.260;20.746;2023-03-23T10:42:31;20.72;55.20
69546;SHT31;56766;52.260;20.746;2023-03-23T10:45:16;20.73;55.01
69546;SHT31;56766;52.260;20.746;2023-03-23T10:50:57;20.82;55.33
69546;SHT31;56766;52.260;20.746;2023-03-23T10:53:33;20.92;55.02
69546;SHT31;56766;52.260;20.746;2023-03-23T10:56:26;21.04;55.11
69546;SHT31;56766;52.260;20.746;2023-03-23T10:59:27;21.11;54.64
69546;SHT31;56766;52.260;20.746;2023-03-23T11:02:00;20.97;53.23
69546;SHT31;56766;52.260;20.746;2023-03-23T11:04:30;20.84;53.53
69546;SHT31;56766;52.260;20.746;2023-03-23T11:07:01;20.83;54.08
69546;SHT31;56766;52.260;20.746;2023-03-23T11:09:38;20.92;54.54
69546;SHT31;56766;52.260;20.746;2023-03-23T11:12:20;21.13;54.93
69546;SHT31;56766;52.260;20.746;2023-03-23T11:14:47;21.44;54.50
69546;SHT31;56766;52.260;20.746;2023-03-23T11:17:25;21.69;53.35
69546;SHT31;56766;52.260;20.746;2023-03-23T11:19:53;21.88;52.78
69546;SHT31;56766;52.260;20.746;2023-03-23T11:22:29;21.99;51.77
69546;SHT31;56766;52.260;20.746;2023-03-23T11:25:04;21.90;52.21
69546;SHT31;56766;52.260;20.746;2023-03-23T11:27:33;22.03;52.40
69546;SHT31;56766;52.260;20.746;2023-03-23T11:30:10;22.26;52.45
69546;SHT31;56766;52.260;20.746;2023-03-23T11:32:45;22.42;52.43
69546;SHT31;56766;52.260;20.746;2023-03-23T11:35:20;22.38;50.56
69546;SHT31;56766;52.260;20.746;2023-03-23T11:37:55;22.25;50.69
69546;SHT31;56766;52.260;20.746;2023-03-23T11:40:26;22.27;51.31
69546;SHT31;56766;52.260;20.746;2023-03-23T11:45:47;22.17;50.76
69546;SHT31;56766;52.260;20.746;2023-03-23T11:51:05;22.33;49.66
69546;SHT31;56766;52.260;20.746;2023-03-23T11:56:45;22.44;47.18
69546;SHT31;56766;52.260;20.746;2023-03-23T11:59:26;22.48;48.35
69546;SHT31;56766;52.260;20.746;2023-03-23T12:02:22;22.53;48.04
69546;SHT31;56766;52.260;20.746;2023-03-23T12:05:15;22.48;48.21
69546;SHT31;56766;52.260;20.746;2023-03-23T12:14:21;22.13;46.85
69546;SHT31;56766;52.260;20.746;2023-03-23T12:17:39;22.05;46.93
69546;SHT31;56766;52.260;20.746;2023-03-23T12:20:36;21.99;46.70
69546;SHT31;56766;52.260;20.746;2023-03-23T12:23:20;21.95;47.08
69546;SHT31;56766;52.260;20.746;2023-03-23T12:28:59;21.99;47.83
69546;SHT31;56766;52.260;20.746;2023-03-23T12:31:58;21.96;48.26
69546;SHT31;56766;52.260;20.746;2023-03-23T12:35:01;21.83;48.51
69546;SHT31;56766;52.260;20.746;2023-03-23T12:38:08;21.76;47.87
69546;SHT31;56766;52.260;20.746;2023-03-23T12:41:00;21.67;48.29
69546;SHT31;56766;52.260;20.746;2023-03-23T12:43:48;21.70;49.12
69546;SHT31;56766;52.260;20.746;2023-03-23T12:46:40;21.73;48.43
69546;SHT31;56766;52.260;20.746;2023-03-23T12:51:42;21.83;49.17
69546;SHT31;56766;52.260;20.746;2023-03-23T13:00:23;22.08;45.68
69546;SHT31;56766;52.260;20.746;2023-03-23T13:03:17;21.99;44.99
69546;SHT31;56766;52.260;20.746;2023-03-23T13:12:26;21.47;46.01
69546;SHT31;56766;52.260;20.746;2023-03-23T13:21:32;20.70;47.00
69546;SHT31;56766;52.260;20.746;2023-03-23T13:24:09;20.44;46.75
69546;SHT31;56766;52.260;20.746;2023-03-23T13:26:43;20.32;46.96
69546;SHT31;56766;52.260;20.746;2023-03-23T13:29:17;20.28;46.95
69546;SHT31;56766;52.260;20.746;2023-03-23T13:31:47;20.26;47.44
69546;SHT31;56766;52.260;20.746;2023-03-23T13:34:24;20.14;47.25
69546;SHT31;56766;52.260;20.746;2023-03-23T13:37:02;19.98;47.53
69546;SHT31;56766;52.260;20.746;2023-03-23T13:39:55;19.85;47.64
69546;SHT31;56766;52.260;20.746;2023-03-23T13:42:27;19.69;47.92
69546;SHT31;56766;52.260;20.746;2023-03-23T13:56:40;18.84;47.88
69546;SHT31;56766;52.260;20.746;2023-03-23T13:59:30;18.71;49.19
69546;SHT31;56766;52.260;20.746;2023-03-23T14:02:33;18.58;49.50
69546;SHT31;56766;52.260;20.746;2023-03-23T14:05:28;18.48;49.94
69546;SHT31;56766;52.260;20.746;2023-03-23T14:08:01;18.38;49.92
69546;SHT31;56766;52.260;20.746;2023-03-23T14:13:33;18.21;51.02
69546;SHT31;56766;52.260;20.746;2023-03-23T14:16:20;18.10;51.58
69546;SHT31;56766;52.260;20.746;2023-03-23T14:18:53;17.96;51.96
69546;SHT31;56766;52.260;20.746;2023-03-23T14:21:33;17.81;52.08
69546;SHT31;56766;52.260;20.746;2023-03-23T14:24:11;17.66;52.40
69546;SHT31;56766;52.260;20.746;2023-03-23T14:26:44;17.55;52.83
69546;SHT31;56766;52.260;20.746;2023-03-23T14:29:12;17.47;53.09
69546;SHT31;56766;52.260;20.746;2023-03-23T14:31:40;17.37;53.65
69546;SHT31;56766;52.260;20.746;2023-03-23T14:34:18;17.28;53.70
69546;SHT31;56766;52.260;20.746;2023-03-23T14:36:47;17.16;53.96
69546;SHT31;56766;52.260;20.746;2023-03-23T14:39:22;17.08;54.31
69546;SHT31;56766;52.260;20.746;2023-03-23T14:41:56;17.03;54.50
69546;SHT31;56766;52.260;20.746;2023-03-23T14:44:33;17.00;54.85
69546;SHT31;56766;52.260;20.746;2023-03-23T14:47:16;16.96;54.78
69546;SHT31;56766;52.260;20.746;2023-03-23T14:49:55;16.94;55.18
69546;SHT31;56766;52.260;20.746;2023-03-23T14:52:27;16.90;55.04
69546;SHT31;56766;52.260;20.746;2023-03-23T14:55:06;16.85;55.53
69546;SHT31;56766;52.260;20.746;2023-03-23T14:57:41;16.80;55.68
69546;SHT31;56766;52.260;20.746;2023-03-23T15:00:18;16.74;55.89
69546;SHT31;56766;52.260;20.746;2023-03-23T15:02:54;16.67;55.68
69546;SHT31;56766;52.260;20.746;2023-03-23T15:08:11;16.58;56.50
69546;SHT31;56766;52.260;20.746;2023-03-23T15:10:42;16.55;56.60
69546;SHT31;56766;52.260;20.746;2023-03-23T15:13:16;16.50;56.74
69546;SHT31;56766;52.260;20.746;2023-03-23T15:15:43;16.45;57.03
69546;SHT31;56766;52.260;20.746;2023-03-23T15:18:29;16.39;57.36
69546;SHT31;56766;52.260;20.746;2023-03-23T15:21:10;16.33;57.41
69546;SHT31;56766;52.260;20.746;2023-03-23T15:23:44;16.26;57.37
69546;SHT31;56766;52.260;20.746;2023-03-23T15:26:30;16.22;57.41
69546;SHT31;56766;52.260;20.746;2023-03-23T15:31:42;16.15;57.92
69546;SHT31;56766;52.260;20.746;2023-03-23T15:34:35;16.09;58.10
69546;SHT31;56766;52.260;20.746;2023-03-23T15:37:19;16.05;58.44
69546;SHT31;56766;52.260;20.746;2023-03-23T15:39:47;15.99;58.70
69546;SHT31;56766;52.260;20.746;2023-03-23T15:45:24;15.88;59.09
69546;SHT31;56766;52.260;20.746;2023-03-23T15:47:54;15.86;59.43
69546;SHT31;56766;52.260;20.746;2023-03-23T15:52:57;15.81;59.98
69546;SHT31;56766;52.260;20.746;2023-03-23T15:55:34;15.76;60.16
69546;SHT31;56766;52.260;20.746;2023-03-23T15:58:12;15.71;60.28
69546;SHT31;56766;52.260;20.746;2023-03-23T16:00:42;15.67;60.54
69546;SHT31;56766;52.260;20.746;2023-03-23T16:03:17;15.63;60.82
69546;SHT31;56766;52.260;20.746;2023-03-23T16:05:47;15.58;61.17
69546;SHT31;56766;52.260;20.746;2023-03-23T16:08:15;15.53;61.47
69546;SHT31;56766;52.260;20.746;2023-03-23T16:10:42;15.47;61.63
69546;SHT31;56766;52.260;20.746;2023-03-23T16:13:09;15.40;61.32
69546;SHT31;56766;52.260;20.746;2023-03-23T16:15:36;15.34;61.60
69546;SHT31;56766;52.260;20.746;2023-03-23T16:18:02;15.29;62.22
69546;SHT31;56766;52.260;20.746;2023-03-23T16:20:29;15.21;62.52
69546;SHT31;56766;52.260;20.746;2023-03-23T16:22:58;15.12;62.50
69546;SHT31;56766;52.260;20.746;2023-03-23T16:25:26;15.03;62.57
69546;SHT31;56766;52.260;20.746;2023-03-23T16:27:53;14.97;62.69
69546;SHT31;56766;52.260;20.746;2023-03-23T16:30:23;14.91;63.11
69546;SHT31;56766;52.260;20.746;2023-03-23T16:32:52;14.86;63.30
69546;SHT31;56766;52.260;20.746;2023-03-23T16:35:20;14.80;63.28
69546;SHT31;56766;52.260;20.746;2023-03-23T16:37:51;14.75;63.36
69546;SHT31;56766;52.260;20.746;2023-03-23T16:40:20;14.69;63.57
69546;SHT31;56766;52.260;20.746;2023-03-23T16:42:47;14.66;63.70
69546;SHT31;56766;52.260;20.746;2023-03-23T16:45:16;14.61;63.93
69546;SHT31;56766;52.260;20.746;2023-03-23T16:47:44;14.56;64.06
69546;SHT31;56766;52.260;20.746;2023-03-23T16:50:14;14.51;64.34
69546;SHT31;56766;52.260;20.746;2023-03-23T16:52:44;14.44;64.65
69546;SHT31;56766;52.260;20.746;2023-03-23T16:55:15;14.39;65.05
69546;SHT31;56766;52.260;20.746;2023-03-23T16:57:42;14.32;65.35
69546;SHT31;56766;52.260;20.746;2023-03-23T17:00:14;14.26;65.54
69546;SHT31;56766;52.260;20.746;2023-03-23T17:02:47;14.19;65.70
69546;SHT31;56766;52.260;20.746;2023-03-23T17:05:19;14.14;65.90
69546;SHT31;56766;52.260;20.746;2023-03-23T17:07:48;14.11;66.21
69546;SHT31;56766;52.260;20.746;2023-03-23T17:10:16;14.05;66.50
69546;SHT31;56766;52.260;20.746;2023-03-23T17:12:43;14.00;66.77
69546;SHT31;56766;52.260;20.746;2023-03-23T17:15:11;13.94;66.85
69546;SHT31;56766;52.260;20.746;2023-03-23T17:17:38;13.90;67.17
69546;SHT31;56766;52.260;20.746;2023-03-23T17:20:05;13.86;67.42
69546;SHT31;56766;52.260;20.746;2023-03-23T17:22:33;13.80;67.64
69546;SHT31;56766;52.260;20.746;2023-03-23T17:24:59;13.73;67.84
69546;SHT31;56766;52.260;20.746;2023-03-23T17:27:27;13.66;68.04
69546;SHT31;56766;52.260;20.746;2023-03-23T17:29:55;13.60;68.20
69546;SHT31;56766;52.260;20.746;2023-03-23T17:32:22;13.55;68.49
69546;SHT31;56766;52.260;20.746;2023-03-23T17:34:50;13.47;68.73